Impacts TAF Board INFO
FOR SITUATIONAL AWARENESS. NOT TO BE USED FOR FLIGHT PLANNING PURPOSES.
IDs:

KPDX - Portland Intl Arpt, OR, US

Issued at 0910 UTC 23 May 2018
Updated at 1056 UTC 23 May 2018
Potential Impact None Slight Moderate High
Time<<24/11Z 24/12Z 24/13Z 24/14Z 24/15Z 24/16Z 24/17Z 24/18Z 24/19Z 24/20Z 24/21Z 24/22Z 24/23Z
Type
VIS
CIG
Cover
FltCat
WX
WDir
WSpd
WGst

Raw TAF
KPDX 230910Z 2309/2406 29006KT P6SM SKC
  FM231300 29005KT P6SM SCT015
  FM231700 30007KT P6SM SCT060
  FM232200 30009KT P6SM SCT060 BKN120


METAR Board
Radar Display
Forecast Discussion

FOR SITUATIONAL AWARENESS. NOT TO BE USED FOR FLIGHT PLANNING PURPOSES.